Time;durP1;ratioP1;P1;durP2;ratioP2;P2;SDS_P1;SDS_P2;PMS_P1;PMS_P2;Temp;Humidity;BMP_temperature;BMP_pressure;BME280_temperature;BME280_humidity;BME280_pressure;Samples;Min_cycle;Max_cycle;Signal;HPM_P1;HPM_P2
2022/07/23 00:00:29;;;;;;;8.10;5.07;;;;;;;15.74;100.00;101824.78;4969114;28;20111;-65
2022/07/23 00:02:54;;;;;;;8.05;5.40;;;;;;;15.80;100.00;101824.34;4970269;28;20046;-65
2022/07/23 00:05:20;;;;;;;9.73;4.38;;;;;;;15.74;100.00;101819.41;4970577;28;20083;-66
2022/07/23 00:07:45;;;;;;;6.88;4.72;;;;;;;15.63;100.00;101824.63;4970749;28;20040;-65
2022/07/23 00:10:11;;;;;;;11.32;5.18;;;;;;;15.58;100.00;101832.16;4969485;28;20042;-65
2022/07/23 00:12:37;;;;;;;9.45;5.78;;;;;;;15.48;100.00;101827.41;4970816;28;20039;-65
2022/07/23 00:15:04;;;;;;;6.65;5.00;;;;;;;15.39;100.00;101824.47;4970376;28;20023;-65
2022/07/23 00:17:29;;;;;;;5.28;4.68;;;;;;;15.36;100.00;101822.88;4953220;28;20059;-65
2022/07/23 00:19:55;;;;;;;6.68;5.07;;;;;;;15.40;100.00;101820.81;4970148;28;20047;-65
2022/07/23 00:22:20;;;;;;;7.40;4.72;;;;;;;15.23;100.00;101819.28;4970250;28;20031;-64
2022/07/23 00:24:46;;;;;;;10.60;5.05;;;;;;;15.18;100.00;101822.28;4970313;28;20050;-64
2022/07/23 00:27:11;;;;;;;7.93;4.72;;;;;;;15.05;100.00;101816.00;4970286;28;20040;-64
2022/07/23 00:29:37;;;;;;;9.93;4.85;;;;;;;14.86;100.00;101811.00;4970417;28;20039;-64
2022/07/23 00:32:02;;;;;;;7.03;5.35;;;;;;;15.02;100.00;101814.38;4969263;28;20031;-65
2022/07/23 00:34:28;;;;;;;6.97;4.75;;;;;;;14.97;100.00;101821.88;4970109;28;20058;-64
2022/07/23 00:36:53;;;;;;;9.40;5.50;;;;;;;14.80;100.00;101821.25;4969315;28;20053;-64
2022/07/23 00:39:21;;;;;;;8.20;4.75;;;;;;;14.88;100.00;101822.47;4970335;28;20039;-64
2022/07/23 00:41:46;;;;;;;8.30;5.45;;;;;;;14.92;100.00;101823.16;4969338;28;20027;-64
2022/07/23 00:44:21;;;;;;;7.45;5.03;;;;;;;14.95;100.00;101823.78;4969230;28;20054;-64
2022/07/23 00:46:49;;;;;;;9.35;5.57;;;;;;;14.89;100.00;101821.50;4985486;28;20270;-64
2022/07/23 00:49:14;;;;;;;7.10;5.20;;;;;;;14.79;100.00;101817.72;4973831;28;20034;-64
2022/07/23 00:51:41;;;;;;;9.75;5.70;;;;;;;14.71;100.00;101820.06;4973766;28;20027;-64
2022/07/23 00:54:06;;;;;;;8.20;5.20;;;;;;;14.73;100.00;101820.81;4973806;28;20114;-64
2022/07/23 00:56:33;;;;;;;8.00;5.50;;;;;;;14.64;100.00;101826.78;4973571;28;20034;-64
2022/07/23 00:59:00;;;;;;;5.53;4.88;;;;;;;14.55;100.00;101816.63;4973526;28;20108;-64
2022/07/23 01:01:26;;;;;;;8.57;5.53;;;;;;;14.48;100.00;101819.69;4988547;28;20099;-64
2022/07/23 01:03:51;;;;;;;11.52;6.55;;;;;;;14.53;100.00;101814.03;4973613;28;20039;-64
2022/07/23 01:06:17;;;;;;;9.38;5.75;;;;;;;14.35;100.00;101820.53;4973699;28;20049;-64
2022/07/23 01:08:43;;;;;;;7.10;5.18;;;;;;;14.50;100.00;101816.91;4988685;28;20023;-64
2022/07/23 01:11:08;;;;;;;9.55;6.70;;;;;;;14.52;100.00;101817.69;4973415;28;20051;-64
2022/07/23 01:13:34;;;;;;;8.80;5.60;;;;;;;14.51;100.00;101815.97;4972565;28;20134;-64
2022/07/23 01:15:59;;;;;;;9.43;6.35;;;;;;;14.57;100.00;101812.88;4972197;28;20031;-66
2022/07/23 01:18:25;;;;;;;11.68;7.03;;;;;;;14.48;100.00;101808.97;4972265;28;20031;-64
2022/07/23 01:20:50;;;;;;;10.15;6.78;;;;;;;14.46;100.00;101807.31;4988211;28;20027;-65
2022/07/23 01:23:18;;;;;;;11.82;6.00;;;;;;;14.49;100.00;101812.50;4972121;28;20103;-64
2022/07/23 01:25:54;;;;;;;10.10;5.93;;;;;;;14.29;100.00;101807.53;4972091;28;20037;-65
2022/07/23 01:28:21;;;;;;;9.93;5.78;;;;;;;14.20;100.00;101807.13;4972210;28;20031;-64
2022/07/23 01:30:48;;;;;;;12.43;6.75;;;;;;;14.12;100.00;101811.28;4988440;28;20035;-64
2022/07/23 01:33:14;;;;;;;9.80;5.63;;;;;;;14.23;100.00;101819.50;4988159;28;20038;-64
2022/07/23 01:35:40;;;;;;;14.07;7.30;;;;;;;14.18;100.00;101806.38;4988262;28;20034;-66
2022/07/23 01:38:06;;;;;;;9.48;5.90;;;;;;;14.20;100.00;101806.28;4972066;28;20079;-64
2022/07/23 01:40:32;;;;;;;13.13;6.90;;;;;;;14.08;100.00;101817.78;4971784;28;20031;-64
2022/07/23 01:42:58;;;;;;;10.63;6.35;;;;;;;14.20;100.00;101804.44;4972122;28;20042;-64
2022/07/23 01:45:24;;;;;;;8.77;6.40;;;;;;;14.17;100.00;101806.50;4972142;28;20081;-64
2022/07/23 01:47:51;;;;;;;10.82;7.82;;;;;;;14.16;100.00;101794.91;4971203;28;20027;-66
2022/07/23 01:50:17;;;;;;;11.02;6.57;;;;;;;14.06;100.00;101798.25;4971696;28;20111;-64
2022/07/23 01:53:01;;;;;;;14.02;7.53;;;;;;;14.14;100.00;101803.97;4972486;28;20046;-64
2022/07/23 01:55:27;;;;;;;17.15;7.00;;;;;;;14.23;100.00;101806.09;4971151;28;20059;-64
2022/07/23 01:57:52;;;;;;;17.40;7.30;;;;;;;14.04;100.00;101802.84;4970920;28;20027;-64
2022/07/23 02:00:21;;;;;;;11.98;7.43;;;;;;;13.91;100.00;101806.31;4970927;28;20035;-64
2022/07/23 02:02:50;;;;;;;10.07;6.22;;;;;;;13.65;100.00;101802.50;4971236;28;20107;-64
2022/07/23 02:05:15;;;;;;;10.85;6.95;;;;;;;13.67;100.00;101802.44;4971287;28;20327;-64
2022/07/23 02:07:42;;;;;;;12.35;7.25;;;;;;;13.84;100.00;101812.13;4971133;28;20055;-65
2022/07/23 02:10:08;;;;;;;9.85;6.22;;;;;;;13.80;100.00;101810.56;4972314;28;20107;-64
2022/07/23 02:12:36;;;;;;;14.93;8.32;;;;;;;13.87;100.00;101801.22;4971184;28;20038;-64
2022/07/23 02:15:02;;;;;;;10.55;6.80;;;;;;;13.85;100.00;101800.44;4971920;28;20042;-64
2022/07/23 02:17:27;;;;;;;10.50;6.45;;;;;;;13.69;100.00;101797.84;4971076;28;20050;-64
2022/07/23 02:19:53;;;;;;;12.45;7.07;;;;;;;13.70;100.00;101795.09;4972054;28;20388;-64
2022/07/23 02:22:18;;;;;;;9.07;6.43;;;;;;;13.79;100.00;101801.69;4971177;28;20046;-69
2022/07/23 02:24:44;;;;;;;11.82;6.40;;;;;;;13.85;100.00;101798.59;4973343;28;20039;-64
2022/07/23 02:27:09;;;;;;;11.43;7.15;;;;;;;13.85;100.00;101790.56;5006480;28;20029;-64
2022/07/23 02:29:34;;;;;;;11.05;6.72;;;;;;;13.85;100.00;101800.44;5006235;28;20031;-66
2022/07/23 02:32:00;;;;;;;9.75;7.10;;;;;;;13.69;100.00;101790.66;5006095;28;20030;-66
2022/07/23 02:34:26;;;;;;;10.95;6.53;;;;;;;13.48;100.00;101792.81;4973752;28;20026;-64
2022/07/23 02:36:51;;;;;;;12.73;6.50;;;;;;;13.71;100.00;101791.44;4990344;28;20031;-65
2022/07/23 02:39:17;;;;;;;8.38;6.38;;;;;;;13.64;100.00;101792.75;4970525;28;20047;-64
2022/07/23 02:41:43;;;;;;;10.57;7.43;;;;;;;13.69;100.00;101795.16;4971594;28;20042;-65
2022/07/23 02:44:09;;;;;;;13.25;6.47;;;;;;;13.73;100.00;101796.69;4970346;28;20038;-65
2022/07/23 02:46:35;;;;;;;16.50;7.20;;;;;;;13.79;100.00;101801.69;4986486;28;20031;-64
2022/07/23 02:49:04;;;;;;;15.43;7.03;;;;;;;13.56;100.00;101803.09;4970414;28;20327;-65
2022/07/23 02:51:30;;;;;;;6.47;5.07;;;;;;;13.10;100.00;101799.56;4969966;28;20038;-65
2022/07/23 02:54:00;;;;;;;7.78;4.47;;;;;;;13.15;100.00;101797.47;4969849;28;20023;-66
2022/07/23 02:56:25;;;;;;;6.70;5.18;;;;;;;13.16;100.00;101792.03;4969857;28;21651;-65
2022/07/23 02:58:54;;;;;;;7.65;4.88;;;;;;;13.11;100.00;101795.94;4985769;28;20136;-65
2022/07/23 03:01:21;;;;;;;7.88;4.72;;;;;;;13.17;100.00;101793.75;4969075;28;20226;-65
2022/07/23 03:03:46;;;;;;;8.85;5.30;;;;;;;13.20;100.00;101790.03;4985343;28;20028;-65
2022/07/23 03:06:12;;;;;;;8.48;6.45;;;;;;;13.26;100.00;101792.41;4969332;28;20035;-65
2022/07/23 03:08:41;;;;;;;11.25;6.55;;;;;;;13.34;100.00;101795.47;4985417;28;20133;-65
2022/07/23 03:11:13;;;;;;;10.02;7.15;;;;;;;13.35;100.00;101797.19;4969057;28;20031;-65
2022/07/23 03:13:41;;;;;;;13.50;6.35;;;;;;;13.36;100.00;101792.72;4969605;28;20031;-65
2022/07/23 03:16:07;;;;;;;9.93;6.32;;;;;;;13.41;100.00;101787.94;4970485;28;20027;-65
2022/07/23 03:18:35;;;;;;;9.23;6.60;;;;;;;13.29;100.00;101797.56;4985713;28;20130;-65
2022/07/23 03:21:00;;;;;;;7.80;6.10;;;;;;;13.25;100.00;101806.72;4970400;28;20047;-65
2022/07/23 03:23:26;;;;;;;9.88;6.10;;;;;;;13.22;100.00;101798.88;4970742;28;20057;-65
2022/07/23 03:25:52;;;;;;;12.65;6.03;;;;;;;13.14;100.00;101799.28;4997618;28;20435;-65
2022/07/23 03:28:19;;;;;;;9.13;6.25;;;;;;;13.11;100.00;101801.31;4972856;28;20046;-66
2022/07/23 03:30:46;;;;;;;7.15;5.20;;;;;;;13.04;100.00;101798.09;5005517;28;20047;-65
2022/07/23 03:33:20;;;;;;;9.70;5.80;;;;;;;12.93;100.00;101800.56;5005267;28;20031;-65
2022/07/23 03:35:47;;;;;;;7.65;3.83;;;;;;;12.84;100.00;101807.28;4982105;28;20178;-65
2022/07/23 03:38:24;;;;;;;10.90;3.25;;;;;;;12.65;100.00;101811.97;4955025;28;20312;-65
2022/07/23 03:40:50;;;;;;;4.00;3.08;;;;;;;12.78;100.00;101810.31;4969471;28;20066;-66
2022/07/23 03:43:15;;;;;;;2.55;2.35;;;;;;;12.73;100.00;101808.88;4969361;28;20058;-65
2022/07/23 03:45:44;;;;;;;7.15;2.08;;;;;;;12.63;100.00;101812.06;4953926;28;20039;-65
2022/07/23 03:48:10;;;;;;;2.65;2.40;;;;;;;12.68;100.00;101817.16;4969218;28;20026;-65
2022/07/23 03:50:37;;;;;;;5.10;2.80;;;;;;;12.65;100.00;101818.19;4969508;28;20051;-65
2022/07/23 03:53:02;;;;;;;7.53;4.78;;;;;;;12.72;100.00;101820.53;4969222;28;20066;-66
2022/07/23 03:55:28;;;;;;;5.25;3.83;;;;;;;12.79;100.00;101819.22;4969140;28;20031;-65
2022/07/23 03:57:54;;;;;;;7.85;4.70;;;;;;;12.81;100.00;101820.00;4969354;28;20308;-66
2022/07/23 04:00:19;;;;;;;9.63;4.28;;;;;;;12.80;100.00;101819.16;4958309;28;20049;-66
2022/07/23 04:02:49;;;;;;;11.98;5.63;;;;;;;12.72;100.00;101813.34;4988814;28;20030;-66
2022/07/23 04:05:18;;;;;;;8.82;5.45;;;;;;;12.68;100.00;101822.50;4988330;28;20041;-65
2022/07/23 04:07:48;;;;;;;8.30;5.13;;;;;;;12.73;100.00;101822.25;5004803;28;20554;-64
2022/07/23 04:10:13;;;;;;;6.20;4.15;;;;;;;12.79;100.00;101822.75;5004623;28;20065;-66
2022/07/23 04:12:39;;;;;;;7.13;5.38;;;;;;;12.98;100.00;101827.06;5004487;28;20027;-65
2022/07/23 04:15:08;;;;;;;10.63;5.80;;;;;;;13.15;100.00;101824.25;4989013;28;20232;-65
2022/07/23 04:17:34;;;;;;;14.15;6.43;;;;;;;13.27;100.00;101828.09;5004196;28;20035;-66
2022/07/23 04:20:01;;;;;;;7.82;5.63;;;;;;;13.26;100.00;101812.97;5004304;28;20030;-66
2022/07/23 04:22:32;;;;;;;10.82;6.07;;;;;;;13.20;100.00;101820.38;4974398;28;20042;-65
2022/07/23 04:24:58;;;;;;;10.10;6.07;;;;;;;13.30;100.00;101818.03;4992964;28;20041;-65
2022/07/23 04:27:24;;;;;;;8.38;5.43;;;;;;;13.38;100.00;101810.41;5007693;28;20042;-65
2022/07/23 04:29:49;;;;;;;9.20;5.88;;;;;;;13.39;100.00;101806.75;4975170;28;20053;-66
2022/07/23 04:32:15;;;;;;;13.35;6.05;;;;;;;13.46;100.00;101812.66;4992452;28;20390;-66
2022/07/23 04:34:40;;;;;;;9.18;6.07;;;;;;;13.57;100.00;101804.81;5008014;28;20023;-66
2022/07/23 04:37:07;;;;;;;12.13;6.93;;;;;;;13.82;100.00;101819.41;4974125;28;20375;-66
2022/07/23 04:39:32;;;;;;;10.75;7.05;;;;;;;13.80;100.00;101816.78;4972212;28;20031;-66
2022/07/23 04:41:58;;;;;;;11.35;6.35;;;;;;;13.79;100.00;101817.75;4973289;28;20097;-65
2022/07/23 04:44:24;;;;;;;8.40;5.70;;;;;;;13.78;100.00;101818.72;4988141;28;20312;-65
2022/07/23 04:46:50;;;;;;;7.05;5.13;;;;;;;13.84;100.00;101812.13;4972081;28;20031;-66
2022/07/23 04:49:17;;;;;;;10.80;6.53;;;;;;;13.96;100.00;101819.44;4972295;28;20041;-65
2022/07/23 04:51:46;;;;;;;12.68;7.03;;;;;;;14.04;100.00;101819.78;4972349;28;20023;-67
2022/07/23 04:54:12;;;;;;;12.68;6.72;;;;;;;14.25;100.00;101828.31;4972218;28;20039;-65
2022/07/23 04:56:37;;;;;;;14.77;7.25;;;;;;;14.31;100.00;101827.06;4972052;28;20054;-65
2022/07/23 04:59:04;;;;;;;17.75;6.22;;;;;;;15.72;100.00;101815.97;4971937;28;20074;-65
2022/07/23 05:01:30;;;;;;;10.90;6.22;;;;;;;16.37;100.00;101817.66;4970751;28;20031;-65
2022/07/23 05:03:55;;;;;;;11.05;5.72;;;;;;;16.42;100.00;101819.03;4991212;28;20035;-66
2022/07/23 05:06:23;;;;;;;13.52;6.10;;;;;;;16.16;100.00;101820.88;4991278;28;20034;-66
2022/07/23 05:08:48;;;;;;;12.43;6.68;;;;;;;15.97;100.00;101817.81;4975093;28;20029;-65
2022/07/23 05:11:14;;;;;;;14.05;6.65;;;;;;;16.01;100.00;101813.91;5007314;28;20050;-65
2022/07/23 05:13:40;;;;;;;11.85;7.05;;;;;;;16.40;100.00;101812.03;5007455;28;20054;-67
2022/07/23 05:16:07;;;;;;;9.52;6.50;;;;;;;16.77;100.00;101821.88;5007352;28;20038;-65
2022/07/23 05:18:32;;;;;;;12.90;6.38;;;;;;;17.02;99.16;101815.53;5007272;28;20034;-64
2022/07/23 05:20:58;;;;;;;10.20;5.97;;;;;;;16.50;100.00;101823.84;4990813;28;20035;-65
2022/07/23 05:23:23;;;;;;;12.20;5.57;;;;;;;16.15;100.00;101829.06;4992056;28;20026;-65
2022/07/23 05:25:49;;;;;;;11.98;6.55;;;;;;;15.89;100.00;101823.72;4996064;28;20039;-65
2022/07/23 05:28:16;;;;;;;10.25;6.47;;;;;;;15.78;100.00;101828.97;4971431;28;20054;-65
2022/07/23 05:30:42;;;;;;;14.32;6.63;;;;;;;16.24;100.00;101831.13;4971530;28;20256;-65
2022/07/23 05:33:11;;;;;;;14.57;7.40;;;;;;;16.37;100.00;101833.81;4970956;28;20028;-64
2022/07/23 05:35:41;;;;;;;11.38;7.15;;;;;;;16.61;100.00;101836.53;4971087;28;20039;-64
2022/07/23 05:38:20;;;;;;;11.20;6.13;;;;;;;16.90;100.00;101842.50;4970745;28;20039;-66
2022/07/23 05:40:47;;;;;;;14.27;6.32;;;;;;;16.83;100.00;101851.06;4971800;28;20195;-65
2022/07/23 05:43:13;;;;;;;13.02;7.10;;;;;;;16.69;100.00;101859.25;4986769;28;20031;-65
2022/07/23 05:45:38;;;;;;;12.93;6.65;;;;;;;16.91;100.00;101849.63;4970619;28;20065;-65
2022/07/23 05:48:04;;;;;;;14.93;7.22;;;;;;;16.81;100.00;101858.38;4970523;28;20031;-65
2022/07/23 05:50:35;;;;;;;9.32;5.82;;;;;;;16.90;100.00;101850.59;4986410;28;20047;-65
2022/07/23 05:53:26;;;;;;;11.07;6.30;;;;;;;17.96;97.15;101851.50;4980877;28;20047;-66
2022/07/23 05:56:01;;;;;;;13.82;6.00;;;;;;;18.73;93.95;101866.06;4955395;28;20042;-65
2022/07/23 05:58:28;;;;;;;12.13;6.05;;;;;;;19.50;88.11;101865.09;4986238;28;20041;-65
2022/07/23 06:00:54;;;;;;;11.07;5.72;;;;;;;18.76;90.84;101873.91;4981330;28;20366;-65
2022/07/23 06:03:21;;;;;;;13.25;5.68;;;;;;;18.82;90.38;101876.09;5005243;28;20041;-66
2022/07/23 06:05:47;;;;;;;12.85;5.95;;;;;;;19.10;90.16;101868.44;4987830;28;20023;-68
2022/07/23 06:08:12;;;;;;;11.88;5.88;;;;;;;19.33;89.29;101874.63;4971047;28;20031;-67
2022/07/23 06:10:38;;;;;;;11.88;5.70;;;;;;;19.51;83.78;101875.75;4988754;28;20019;-67
2022/07/23 06:13:04;;;;;;;7.05;4.45;;;;;;;18.84;85.51;101871.44;5004118;28;20019;-68
2022/07/23 06:15:30;;;;;;;7.95;5.30;;;;;;;18.96;86.45;101872.25;4988220;28;20031;-67
2022/07/23 06:17:56;;;;;;;7.72;4.50;;;;;;;20.02;80.64;101869.59;4988890;28;20034;-67
2022/07/23 06:20:22;;;;;;;9.20;4.97;;;;;;;19.65;82.72;101869.22;5003893;28;20031;-68
2022/07/23 06:22:47;;;;;;;6.88;4.57;;;;;;;19.92;79.79;101861.41;5004506;28;20119;-66
2022/07/23 06:25:13;;;;;;;8.73;4.50;;;;;;;19.75;80.94;101863.88;4989603;28;20034;-67
2022/07/23 06:27:41;;;;;;;9.90;5.20;;;;;;;20.13;78.45;101869.53;4988627;28;20023;-66
2022/07/23 06:30:08;;;;;;;13.50;5.32;;;;;;;20.04;79.95;101864.06;4990141;28;20058;-68
2022/07/23 06:32:33;;;;;;;9.48;4.93;;;;;;;20.67;77.69;101862.94;4989349;28;20070;-68
2022/07/23 06:35:01;;;;;;;8.05;4.60;;;;;;;20.66;79.45;101865.81;4988600;28;20034;-68
2022/07/23 06:37:27;;;;;;;8.70;4.93;;;;;;;20.97;77.91;101860.31;4969641;28;20051;-67
2022/07/23 06:39:52;;;;;;;7.55;5.10;;;;;;;21.02;76.37;101858.88;4969764;28;20023;-67
2022/07/23 06:42:18;;;;;;;8.05;4.95;;;;;;;21.11;75.26;101857.19;4969531;28;20023;-66
2022/07/23 06:44:45;;;;;;;10.32;5.40;;;;;;;21.48;74.24;101857.38;4968358;28;20047;-67
2022/07/23 06:47:10;;;;;;;6.40;4.80;;;;;;;21.00;75.58;101871.75;4970118;28;20299;-66
2022/07/23 06:49:36;;;;;;;11.05;4.72;;;;;;;21.30;74.32;101868.09;4970169;28;20039;-67
2022/07/23 06:52:02;;;;;;;9.15;5.28;;;;;;;21.13;76.08;101872.31;4951221;28;20074;-67
2022/07/23 06:54:27;;;;;;;8.18;4.53;;;;;;;21.37;71.47;101876.53;4951396;28;20483;-66
2022/07/23 06:56:53;;;;;;;14.48;4.35;;;;;;;21.73;69.14;101875.78;4951133;28;20028;-66
2022/07/23 06:59:19;;;;;;;6.15;4.30;;;;;;;22.16;70.71;101879.88;4953309;28;20126;-66
2022/07/23 07:01:47;;;;;;;9.57;4.63;;;;;;;22.07;70.38;101879.88;4962978;28;20039;-66
2022/07/23 07:04:12;;;;;;;5.32;4.10;;;;;;;22.39;67.63;101880.41;4985290;28;20039;-67
2022/07/23 07:06:38;;;;;;;5.57;4.60;;;;;;;22.64;68.31;101886.13;4969476;28;20027;-67
2022/07/23 07:09:05;;;;;;;8.27;4.25;;;;;;;22.75;67.25;101884.09;4969392;28;20023;-67
2022/07/23 07:11:30;;;;;;;5.20;3.75;;;;;;;22.86;61.70;101887.63;4985629;28;20054;-67
2022/07/23 07:13:56;;;;;;;5.82;4.32;;;;;;;22.82;64.80;101888.91;4969305;28;20024;-66
2022/07/23 07:16:22;;;;;;;5.25;3.20;;;;;;;23.13;62.70;101892.19;4969215;28;20043;-66
2022/07/23 07:18:47;;;;;;;3.30;2.95;;;;;;;22.43;63.50;101892.66;4969409;28;20059;-66
2022/07/23 07:21:13;;;;;;;8.10;3.40;;;;;;;22.51;65.52;101888.34;4969107;28;20050;-66
2022/07/23 07:23:39;;;;;;;4.63;3.10;;;;;;;22.63;66.00;101895.31;4969148;28;20042;-67
2022/07/23 07:26:05;;;;;;;4.07;3.20;;;;;;;22.71;64.12;101887.25;4968893;28;20047;-67
2022/07/23 07:28:31;;;;;;;6.30;3.38;;;;;;;22.40;63.94;101887.53;4969989;28;20027;-67
2022/07/23 07:30:57;;;;;;;5.03;3.45;;;;;;;22.41;65.27;101894.69;4969786;28;20035;-68
2022/07/23 07:33:22;;;;;;;3.88;2.45;;;;;;;22.18;64.43;101896.03;4985171;28;20148;-67
2022/07/23 07:35:48;;;;;;;4.65;2.67;;;;;;;22.55;60.91;101882.47;4968797;28;20055;-67
2022/07/23 07:38:14;;;;;;;5.20;3.00;;;;;;;22.86;64.65;101893.91;4969798;28;20038;-67
2022/07/23 07:40:39;;;;;;;6.97;3.50;;;;;;;22.05;66.95;101895.47;4984719;28;20031;-67
2022/07/23 07:43:05;;;;;;;8.15;2.95;;;;;;;23.08;63.77;101899.97;4968770;28;20075;-67
2022/07/23 07:45:31;;;;;;;5.15;3.70;;;;;;;22.39;67.00;101899.44;4984632;28;20035;-67
2022/07/23 07:48:00;;;;;;;4.70;3.13;;;;;;;21.80;67.58;101903.25;4969587;28;20031;-67
2022/07/23 07:50:26;;;;;;;4.28;3.40;;;;;;;21.95;66.15;101888.19;4966651;28;20039;-67
2022/07/23 07:52:51;;;;;;;10.70;3.78;;;;;;;21.14;68.35;101894.91;4968667;28;20098;-66
2022/07/23 07:55:19;;;;;;;8.02;3.88;;;;;;;21.71;65.32;101890.53;4984316;28;20043;-66
2022/07/23 07:57:45;;;;;;;6.55;3.88;;;;;;;22.63;65.01;101901.59;4968028;28;20031;-66
2022/07/23 08:00:11;;;;;;;9.13;3.40;;;;;;;22.73;61.68;101893.38;4967478;28;20105;-67
2022/07/23 08:02:45;;;;;;;5.20;3.78;;;;;;;22.87;62.83;101902.91;4962526;28;20064;-65
2022/07/23 08:05:11;;;;;;;6.97;3.55;;;;;;;22.89;61.50;101909.09;4958288;28;20023;-67
2022/07/23 08:07:40;;;;;;;11.32;3.50;;;;;;;23.37;62.08;101918.81;4968401;28;20035;-66
2022/07/23 08:10:08;;;;;;;7.18;3.28;;;;;;;24.02;58.14;101913.97;4967656;28;20055;-66
2022/07/23 08:12:40;;;;;;;5.57;3.25;;;;;;;24.29;54.70;101910.22;4968742;28;20035;-66
2022/07/23 08:15:07;;;;;;;6.55;3.30;;;;;;;23.88;56.51;101906.38;4967177;28;20027;-65
2022/07/23 08:17:34;;;;;;;9.57;3.35;;;;;;;23.64;60.06;101907.00;4983912;28;20062;-66
2022/07/23 08:20:06;;;;;;;8.27;3.53;;;;;;;23.19;57.30;101921.50;4951363;28;20035;-65
2022/07/23 08:22:42;;;;;;;5.47;3.28;;;;;;;23.23;61.10;101914.75;4965795;28;20035;-63
2022/07/23 08:25:11;;;;;;;5.05;3.30;;;;;;;23.25;56.10;101920.91;4966762;28;20043;-64
2022/07/23 08:27:37;;;;;;;7.53;2.50;;;;;;;23.99;59.54;101917.00;4966789;28;20062;-67
2022/07/23 08:30:03;;;;;;;6.55;2.75;;;;;;;23.48;55.88;101907.69;4967718;28;20020;-64
2022/07/23 08:32:29;;;;;;;3.05;2.70;;;;;;;23.90;57.04;101915.25;4965936;29;20041;-64
2022/07/23 08:34:54;;;;;;;3.88;2.22;;;;;;;23.87;57.01;101916.41;4962797;28;20035;-64
2022/07/23 08:37:20;;;;;;;7.18;3.10;;;;;;;23.07;58.30;101926.31;4963681;29;20023;-64
2022/07/23 08:39:46;;;;;;;8.68;2.70;;;;;;;22.88;60.45;101924.56;4962586;29;20046;-65
2022/07/23 08:42:13;;;;;;;7.72;3.20;;;;;;;22.64;58.83;101926.91;4962540;29;20062;-65
2022/07/23 08:44:44;;;;;;;5.05;2.97;;;;;;;22.72;59.64;101924.31;4963231;29;20320;-64
2022/07/23 08:47:11;;;;;;;6.07;2.75;;;;;;;23.50;62.12;101920.16;4962379;29;20035;-64
2022/07/23 08:49:37;;;;;;;5.88;2.53;;;;;;;22.99;62.86;101918.03;4963534;29;20114;-64
2022/07/23 08:52:04;;;;;;;8.73;2.67;;;;;;;23.02;63.97;101920.47;4964123;28;20059;-65
2022/07/23 08:54:31;;;;;;;6.20;2.30;;;;;;;23.18;60.63;101926.09;4965671;28;20043;-64
2022/07/23 08:56:56;;;;;;;6.00;2.30;;;;;;;23.61;59.02;101929.09;4965130;29;20062;-64
2022/07/23 08:59:22;;;;;;;7.43;2.20;;;;;;;23.46;55.88;101929.63;4965123;29;20030;-64
2022/07/23 09:01:47;;;;;;;4.80;2.50;;;;;;;24.07;58.94;101933.44;4961468;28;20078;-67
2022/07/23 09:04:13;;;;;;;7.85;2.58;;;;;;;23.65;55.98;101930.53;4953523;29;20074;-65
2022/07/23 09:06:39;;;;;;;2.95;2.47;;;;;;;23.72;58.73;101924.28;4964404;29;20032;-65
2022/07/23 09:09:18;;;;;;;4.13;2.55;;;;;;;23.05;58.70;101933.78;4967735;28;20058;-65
2022/07/23 09:12:05;;;;;;;6.53;3.25;;;;;;;23.04;58.27;101933.91;4951731;28;20040;-65
2022/07/23 09:14:46;;;;;;;3.60;2.47;;;;;;;23.11;58.15;101933.19;4966217;28;20044;-65
2022/07/23 09:17:14;;;;;;;3.75;2.40;;;;;;;23.37;56.78;101930.56;4983312;28;20038;-65
2022/07/23 09:19:40;;;;;;;5.30;2.53;;;;;;;23.13;58.73;101924.84;4966431;29;20027;-65
2022/07/23 09:22:27;;;;;;;4.88;2.30;;;;;;;23.93;56.35;101917.66;4982792;28;20047;-64
2022/07/23 09:25:11;;;;;;;5.45;2.47;;;;;;;22.84;57.83;101920.41;4953662;28;20041;-64
2022/07/23 09:28:02;;;;;;;5.22;2.35;;;;;;;23.59;57.06;101920.22;4965404;28;20062;-64
2022/07/23 09:30:29;;;;;;;6.47;2.23;;;;;;;23.75;61.52;101912.25;4964877;29;20078;-64
2022/07/23 09:33:13;;;;;;;2.45;1.98;;;;;;;23.91;61.20;101914.25;4965047;29;20042;-64
2022/07/23 09:35:48;;;;;;;3.75;2.45;;;;;;;23.91;55.95;101916.97;4980555;28;20045;-66
2022/07/23 09:38:14;;;;;;;9.77;3.58;;;;;;;23.35;62.81;101938.03;4967535;28;20034;-65
2022/07/23 09:40:40;;;;;;;4.90;2.72;;;;;;;22.74;60.36;101930.44;4984357;28;20031;-64
2022/07/23 09:43:05;;;;;;;5.00;2.03;;;;;;;23.34;57.42;101930.84;4967641;28;20727;-65
2022/07/23 09:45:31;;;;;;;3.70;1.90;;;;;;;22.92;59.93;101933.28;4969307;28;20027;-65
2022/07/23 09:48:16;;;;;;;4.13;2.17;;;;;;;22.72;62.87;101933.34;4968388;28;20035;-65
2022/07/23 09:50:44;;;;;;;4.50;2.20;;;;;;;22.46;61.16;101938.59;4956187;28;20122;-65
2022/07/23 09:53:24;;;;;;;4.15;2.00;;;;;;;21.82;64.28;101935.66;4968838;28;20694;-65
2022/07/23 09:55:54;;;;;;;4.80;3.28;;;;;;;21.82;62.30;101932.94;4968798;28;20106;-65
2022/07/23 09:58:22;;;;;;;6.18;3.30;;;;;;;22.03;62.44;101933.63;4969454;28;20031;-65
2022/07/23 10:00:49;;;;;;;6.35;2.83;;;;;;;23.00;59.15;101933.38;4967689;28;20383;-65
2022/07/23 10:03:17;;;;;;;4.30;2.80;;;;;;;22.96;58.56;101929.25;4966873;28;20034;-65
2022/07/23 10:06:01;;;;;;;3.95;2.30;;;;;;;22.52;61.12;101934.41;4954697;28;20112;-66
2022/07/23 10:08:28;;;;;;;4.13;2.67;;;;;;;22.69;60.88;101930.94;4968541;28;20051;-65
2022/07/23 10:11:14;;;;;;;4.68;2.67;;;;;;;23.35;58.95;101929.03;4968408;28;20054;-65
2022/07/23 10:14:05;;;;;;;3.67;2.33;;;;;;;23.90;56.39;101915.25;4970915;28;20047;-65
2022/07/23 10:16:54;;;;;;;5.55;2.35;;;;;;;23.80;58.89;101917.19;4966803;28;20099;-65
2022/07/23 10:19:22;;;;;;;3.97;2.78;;;;;;;23.34;57.08;101919.97;4966486;28;20042;-66
2022/07/23 10:21:53;;;;;;;3.72;2.17;;;;;;;24.20;56.57;101906.63;4966840;28;20054;-66
2022/07/23 10:24:46;;;;;;;3.70;2.25;;;;;;;24.03;57.74;101912.97;4950652;28;20042;-65
2022/07/23 10:27:42;;;;;;;3.55;2.30;;;;;;;24.56;55.97;101909.25;4959657;28;20042;-64
2022/07/23 10:30:28;;;;;;;2.35;1.92;;;;;;;24.75;57.84;101903.53;4966923;28;20059;-66
2022/07/23 10:32:59;;;;;;;3.40;2.30;;;;;;;23.39;58.41;101914.91;4956853;28;20252;-64
2022/07/23 10:35:43;;;;;;;7.57;2.50;;;;;;;23.87;57.16;101908.25;4968744;28;20090;-65
2022/07/23 10:38:30;;;;;;;6.18;2.15;;;;;;;24.13;56.84;101902.81;4966274;28;20031;-68
2022/07/23 10:41:02;;;;;;;5.07;2.20;;;;;;;24.19;54.22;101904.88;4950745;29;20362;-64
2022/07/23 10:43:29;;;;;;;4.40;2.00;;;;;;;24.50;52.61;101899.84;4974978;28;20055;-65
2022/07/23 10:45:55;;;;;;;6.25;2.33;;;;;;;24.72;52.75;101900.28;4958337;28;20023;-64
2022/07/23 10:48:23;;;;;;;4.72;2.13;;;;;;;25.13;52.36;101900.44;4961142;29;20050;-64
2022/07/23 10:51:13;;;;;;;6.25;2.72;;;;;;;25.23;56.29;101890.22;4943800;29;20136;-64
2022/07/23 10:53:53;;;;;;;3.45;2.50;;;;;;;25.28;55.34;101902.34;4958833;29;20070;-64
2022/07/23 10:57:04;;;;;;;2.72;2.20;;;;;;;24.72;59.51;101897.56;4960753;29;20027;-65
2022/07/23 10:59:29;;;;;;;2.08;1.88;;;;;;;23.94;54.53;101901.13;4962869;28;20047;-65
2022/07/23 11:02:22;;;;;;;3.20;2.20;;;;;;;23.67;61.26;101910.28;4961234;28;20153;-64
2022/07/23 11:04:49;;;;;;;2.38;2.17;;;;;;;24.19;56.43;101904.03;4952210;29;20050;-64
2022/07/23 11:07:16;;;;;;;2.80;2.28;;;;;;;24.71;52.57;101899.44;4953073;29;20039;-64
2022/07/23 11:09:47;;;;;;;6.30;2.47;;;;;;;24.84;52.78;101904.41;4958754;28;20078;-64
2022/07/23 11:12:12;;;;;;;2.25;2.05;;;;;;;25.11;54.68;101903.34;4959128;29;20070;-64
2022/07/23 11:15:03;;;;;;;3.30;1.98;;;;;;;24.63;56.53;101910.28;4957906;29;20042;-64
2022/07/23 11:17:31;;;;;;;3.35;2.50;;;;;;;25.02;54.09;101902.44;4969375;28;20031;-64
2022/07/23 11:20:09;;;;;;;4.63;2.25;;;;;;;24.64;59.88;101908.41;4961403;28;20062;-64
2022/07/23 11:22:40;;;;;;;10.68;2.65;;;;;;;24.78;52.85;101905.91;4951992;28;20847;-66
2022/07/23 11:25:06;;;;;;;5.10;2.20;;;;;;;24.32;53.04;101903.63;4942633;29;20130;-65